<?xml version='1.0' encoding='UTF-8'?><gpx version="1.1" creator="JPX - https://github.com/jenetics/jpx" xmlns="http://www.topografix.com/GPX/1/1"><trk><trkseg><trkpt lat="41.78791079999999" lon="12.599608899999998"><ele>128.0</ele><time>2026-04-14T17:49:00.068Z</time></trkpt><trkpt lat="41.787917199999995" lon="12.599742299999997"><ele>128.0</ele><time>2026-04-14T17:49:02.059Z</time></trkpt><trkpt lat="41.787923299999996" lon="12.5998711"><ele>128.0</ele><time>2026-04-14T17:49:04.022Z</time></trkpt><trkpt lat="41.7879301" lon="12.600017700000002"><ele>128.0</ele><time>2026-04-14T17:49:06.025Z</time></trkpt><trkpt lat="41.7879372" lon="12.6001712"><ele>128.0</ele><time>2026-04-14T17:49:08.103Z</time></trkpt><trkpt lat="41.78794370000001" lon="12.6003088"><ele>128.4</ele><time>2026-04-14T17:49:10.018Z</time></trkpt><trkpt lat="41.787949700000006" lon="12.600437900000001"><ele>128.8</ele><time>2026-04-14T17:49:12.018Z</time></trkpt><trkpt lat="41.787957000000006" lon="12.600583400000001"><ele>129.2</ele><time>2026-04-14T17:49:14.041Z</time></trkpt><trkpt lat="41.787965699999994" lon="12.600752"><ele>129.6</ele><time>2026-04-14T17:49:16.029Z</time></trkpt><trkpt lat="41.7879709" lon="12.600847400000003"><ele>130.0</ele><time>2026-04-14T17:49:17.034Z</time></trkpt><trkpt lat="41.7879762" lon="12.6009488"><ele>130.0</ele><time>2026-04-14T17:49:18.137Z</time></trkpt><trkpt lat="41.787981800000004" lon="12.6010493"><ele>130.0</ele><time>2026-04-14T17:49:19.022Z</time></trkpt><trkpt lat="41.7879878" lon="12.6011512"><ele>130.0</ele><time>2026-04-14T17:49:20.083Z</time></trkpt><trkpt lat="41.787993099999994" lon="12.60125"><ele>130.0</ele><time>2026-04-14T17:49:21.108Z</time></trkpt><trkpt lat="41.7879981" lon="12.601338600000002"><ele>130.0</ele><time>2026-04-14T17:49:22.028Z</time></trkpt><trkpt lat="41.7880031" lon="12.601426900000002"><ele>130.0</ele><time>2026-04-14T17:49:23.053Z</time></trkpt><trkpt lat="41.78801190000001" lon="12.601596099999998"><ele>130.0</ele><time>2026-04-14T17:49:25.102Z</time></trkpt><trkpt lat="41.788016600000006" lon="12.601686099999998"><ele>130.0</ele><time>2026-04-14T17:49:26.033Z</time></trkpt><trkpt lat="41.7880216" lon="12.601781999999998"><ele>130.0</ele><time>2026-04-14T17:49:27.046Z</time></trkpt><trkpt lat="41.788026900000006" lon="12.601878800000001"><ele>130.0</ele><time>2026-04-14T17:49:28.07Z</time></trkpt><trkpt lat="41.7880319" lon="12.6019843"><ele>130.0</ele><time>2026-04-14T17:49:29.094Z</time></trkpt><trkpt lat="41.788037100000004" lon="12.602092999999998"><ele>130.0</ele><time>2026-04-14T17:49:30.118Z</time></trkpt><trkpt lat="41.7880429" lon="12.6022064"><ele>130.16666666666669</ele><time>2026-04-14T17:49:31.027Z</time></trkpt><trkpt lat="41.7880491" lon="12.602321199999997"><ele>130.33333333333334</ele><time>2026-04-14T17:49:32.036Z</time></trkpt><trkpt lat="41.7880554" lon="12.6024391"><ele>130.5</ele><time>2026-04-14T17:49:33.074Z</time></trkpt><trkpt lat="41.78806169999999" lon="12.602556799999999"><ele>130.66666666666666</ele><time>2026-04-14T17:49:34.018Z</time></trkpt><trkpt lat="41.7880682" lon="12.602673699999997"><ele>130.83333333333331</ele><time>2026-04-14T17:49:35.033Z</time></trkpt><trkpt lat="41.788074099999996" lon="12.602789700000002"><ele>131.0</ele><time>2026-04-14T17:49:36.022Z</time></trkpt><trkpt lat="41.7880778" lon="12.6029074"><ele>131.33333333333331</ele><time>2026-04-14T17:49:37.027Z</time></trkpt><trkpt lat="41.788081399999996" lon="12.603022300000001"><ele>131.66666666666666</ele><time>2026-04-14T17:49:38.021Z</time></trkpt><trkpt lat="41.788086400000005" lon="12.6031371"><ele>132.0</ele><time>2026-04-14T17:49:39.033Z</time></trkpt><trkpt lat="41.788090700000005" lon="12.603255599999999"><ele>132.33333333333334</ele><time>2026-04-14T17:49:40.051Z</time></trkpt><trkpt lat="41.7880938" lon="12.603365799999999"><ele>132.66666666666669</ele><time>2026-04-14T17:49:41.074Z</time></trkpt><trkpt lat="41.7880954" lon="12.6034742"><ele>133.0</ele><time>2026-04-14T17:49:42.098Z</time></trkpt><trkpt lat="41.788097400000005" lon="12.603578599999999"><ele>133.14285714285714</ele><time>2026-04-14T17:49:43.124Z</time></trkpt><trkpt lat="41.78810360000001" lon="12.603681300000002"><ele>133.28571428571428</ele><time>2026-04-14T17:49:44.022Z</time></trkpt><trkpt lat="41.788111799999996" lon="12.603785899999998"><ele>133.42857142857144</ele><time>2026-04-14T17:49:45.03Z</time></trkpt><trkpt lat="41.788119300000005" lon="12.603891099999998"><ele>133.57142857142856</ele><time>2026-04-14T17:49:46.091Z</time></trkpt><trkpt lat="41.78812729999999" lon="12.6039951"><ele>133.71428571428572</ele><time>2026-04-14T17:49:47.116Z</time></trkpt><trkpt lat="41.78813489999999" lon="12.6040913"><ele>133.85714285714286</ele><time>2026-04-14T17:49:48.037Z</time></trkpt><trkpt lat="41.78814070000001" lon="12.6041772"><ele>134.0</ele><time>2026-04-14T17:49:49.062Z</time></trkpt><trkpt lat="41.7881462" lon="12.604262400000001"><ele>134.0</ele><time>2026-04-14T17:49:50.02Z</time></trkpt><trkpt lat="41.78815540000001" lon="12.6044049"><ele>134.0</ele><time>2026-04-14T17:49:52.031Z</time></trkpt><trkpt lat="41.788167300000005" lon="12.604545700000001"><ele>134.0</ele><time>2026-04-14T17:49:54.078Z</time></trkpt><trkpt lat="41.788173400000005" lon="12.6046637"><ele>134.0</ele><time>2026-04-14T17:49:56.128Z</time></trkpt><trkpt lat="41.788176400000005" lon="12.604758200000001"><ele>134.0</ele><time>2026-04-14T17:49:59.096Z</time></trkpt><trkpt lat="41.78817949999999" lon="12.6048614"><ele>134.0</ele><time>2026-04-14T17:50:03.089Z</time></trkpt><trkpt lat="41.7881831" lon="12.6049786"><ele>134.8</ele><time>2026-04-14T17:50:06.06Z</time></trkpt><trkpt lat="41.7881861" lon="12.6050807"><ele>135.60000000000002</ele><time>2026-04-14T17:50:08.107Z</time></trkpt><trkpt lat="41.788187600000015" lon="12.6052102"><ele>136.4</ele><time>2026-04-14T17:50:10.053Z</time></trkpt><trkpt lat="41.788186499999995" lon="12.6053624"><ele>137.20000000000002</ele><time>2026-04-14T17:50:12.101Z</time></trkpt><trkpt lat="41.7881826" lon="12.605517100000002"><ele>138.0</ele><time>2026-04-14T17:50:14.049Z</time></trkpt><trkpt lat="41.78817959999999" lon="12.605635400000002"><ele>138.20000000000002</ele><time>2026-04-14T17:50:16.095Z</time></trkpt><trkpt lat="41.78817600000001" lon="12.605767600000002"><ele>138.4</ele><time>2026-04-14T17:50:19.064Z</time></trkpt><trkpt lat="41.78817560000001" lon="12.6058954"><ele>138.60000000000002</ele><time>2026-04-14T17:50:21.112Z</time></trkpt><trkpt lat="41.78817349999999" lon="12.606069200000002"><ele>138.8</ele><time>2026-04-14T17:50:23.017Z</time></trkpt><trkpt lat="41.7881725" lon="12.6061672"><ele>139.0</ele><time>2026-04-14T17:50:24.082Z</time></trkpt><trkpt lat="41.78817130000001" lon="12.6062692"><ele>139.16666666666669</ele><time>2026-04-14T17:50:25.107Z</time></trkpt><trkpt lat="41.7881698" lon="12.606372299999999"><ele>139.33333333333334</ele><time>2026-04-14T17:50:26.028Z</time></trkpt><trkpt lat="41.788168399999996" lon="12.6064753"><ele>139.5</ele><time>2026-04-14T17:50:27.051Z</time></trkpt><trkpt lat="41.78816660000001" lon="12.6065762"><ele>139.66666666666666</ele><time>2026-04-14T17:50:28.075Z</time></trkpt><trkpt lat="41.78816489999999" lon="12.6066759"><ele>139.83333333333331</ele><time>2026-04-14T17:50:29.099Z</time></trkpt><trkpt lat="41.78816230000001" lon="12.606777800000001"><ele>140.0</ele><time>2026-04-14T17:50:30.123Z</time></trkpt><trkpt lat="41.7881594" lon="12.606877999999998"><ele>140.0</ele><time>2026-04-14T17:50:31.027Z</time></trkpt><trkpt lat="41.7881561" lon="12.6069768"><ele>140.0</ele><time>2026-04-14T17:50:32.069Z</time></trkpt><trkpt lat="41.788152999999994" lon="12.6070749"><ele>140.0</ele><time>2026-04-14T17:50:33.033Z</time></trkpt><trkpt lat="41.7881509" lon="12.607172199999999"><ele>140.0</ele><time>2026-04-14T17:50:34.117Z</time></trkpt><trkpt lat="41.78814919999999" lon="12.607268600000001"><ele>140.0</ele><time>2026-04-14T17:50:35.018Z</time></trkpt><trkpt lat="41.7881481" lon="12.607358500000002"><ele>140.0</ele><time>2026-04-14T17:50:36.063Z</time></trkpt><trkpt lat="41.788147300000006" lon="12.607447800000001"><ele>140.0</ele><time>2026-04-14T17:50:37.027Z</time></trkpt><trkpt lat="41.788147200000004" lon="12.607532800000001"><ele>140.0</ele><time>2026-04-14T17:50:38.112Z</time></trkpt><trkpt lat="41.7881463" lon="12.607621300000002"><ele>140.0</ele><time>2026-04-14T17:50:39.029Z</time></trkpt><trkpt lat="41.788144499999994" lon="12.6077109"><ele>140.0</ele><time>2026-04-14T17:50:40.056Z</time></trkpt><trkpt lat="41.788143000000005" lon="12.607803500000001"><ele>140.0</ele><time>2026-04-14T17:50:41.016Z</time></trkpt><trkpt lat="41.7881416" lon="12.607897099999999"><ele>140.0</ele><time>2026-04-14T17:50:42.106Z</time></trkpt><trkpt lat="41.78814080000001" lon="12.607990299999999"><ele>140.0</ele><time>2026-04-14T17:50:43.023Z</time></trkpt><trkpt lat="41.7881395" lon="12.6080876"><ele>140.0</ele><time>2026-04-14T17:50:44.054Z</time></trkpt><trkpt lat="41.78813830000001" lon="12.6081812"><ele>140.5</ele><time>2026-04-14T17:50:45.023Z</time></trkpt><trkpt lat="41.78813600000001" lon="12.6082778"><ele>141.0</ele><time>2026-04-14T17:50:46.098Z</time></trkpt><trkpt lat="41.7881325" lon="12.6083771"><ele>141.5</ele><time>2026-04-14T17:50:47.031Z</time></trkpt><trkpt lat="41.7881291" lon="12.608481099999999"><ele>142.0</ele><time>2026-04-14T17:50:48.045Z</time></trkpt><trkpt lat="41.7881248" lon="12.608584699999998"><ele>142.5</ele><time>2026-04-14T17:50:49.018Z</time></trkpt><trkpt lat="41.7881196" lon="12.608694500000002"><ele>143.0</ele><time>2026-04-14T17:50:50.092Z</time></trkpt><trkpt lat="41.788116099999996" lon="12.6088077"><ele>143.5</ele><time>2026-04-14T17:50:51.024Z</time></trkpt><trkpt lat="41.788112500000004" lon="12.6089234"><ele>144.0</ele><time>2026-04-14T17:50:52.038Z</time></trkpt><trkpt lat="41.78811000000001" lon="12.609043699999997"><ele>144.5</ele><time>2026-04-14T17:50:53.024Z</time></trkpt><trkpt lat="41.7881086" lon="12.6091649"><ele>145.0</ele><time>2026-04-14T17:50:54.087Z</time></trkpt><trkpt lat="41.7881071" lon="12.6092854"><ele>145.5</ele><time>2026-04-14T17:50:55.069Z</time></trkpt><trkpt lat="41.788104999999995" lon="12.6094098"><ele>146.0</ele><time>2026-04-14T17:50:56.032Z</time></trkpt><trkpt lat="41.788102" lon="12.609528699999998"><ele>146.16666666666666</ele><time>2026-04-14T17:50:57.057Z</time></trkpt><trkpt lat="41.7881009" lon="12.609647800000001"><ele>146.33333333333331</ele><time>2026-04-14T17:50:58.034Z</time></trkpt><trkpt lat="41.78809939999999" lon="12.609764700000001"><ele>146.5</ele><time>2026-04-14T17:50:59.022Z</time></trkpt><trkpt lat="41.788098999999995" lon="12.6098791"><ele>146.66666666666666</ele><time>2026-04-14T17:51:00.025Z</time></trkpt><trkpt lat="41.788097500000006" lon="12.609994200000001"><ele>146.83333333333334</ele><time>2026-04-14T17:51:01.041Z</time></trkpt><trkpt lat="41.78809549999999" lon="12.610106299999998"><ele>147.0</ele><time>2026-04-14T17:51:02.073Z</time></trkpt><trkpt lat="41.788093" lon="12.610216600000001"><ele>147.33333333333334</ele><time>2026-04-14T17:51:03.07Z</time></trkpt><trkpt lat="41.788090600000004" lon="12.610325900000001"><ele>147.66666666666666</ele><time>2026-04-14T17:51:04.121Z</time></trkpt><trkpt lat="41.78808829999999" lon="12.6104356"><ele>148.0</ele><time>2026-04-14T17:51:05.043Z</time></trkpt><trkpt lat="41.788085900000006" lon="12.6105448"><ele>148.33333333333331</ele><time>2026-04-14T17:51:06.022Z</time></trkpt><trkpt lat="41.7880833" lon="12.610655799999998"><ele>148.66666666666666</ele><time>2026-04-14T17:51:07.091Z</time></trkpt><trkpt lat="41.788080300000004" lon="12.610768700000001"><ele>149.0</ele><time>2026-04-14T17:51:08.116Z</time></trkpt><trkpt lat="41.788077900000005" lon="12.6108842"><ele>149.0</ele><time>2026-04-14T17:51:09.037Z</time></trkpt><trkpt lat="41.788076000000004" lon="12.6109976"><ele>149.0</ele><time>2026-04-14T17:51:10.061Z</time></trkpt><trkpt lat="41.7880743" lon="12.611112"><ele>149.0</ele><time>2026-04-14T17:51:11.085Z</time></trkpt><trkpt lat="41.7880734" lon="12.611226399999998"><ele>149.0</ele><time>2026-04-14T17:51:12.11Z</time></trkpt><trkpt lat="41.78807230000001" lon="12.611339500000001"><ele>149.0</ele><time>2026-04-14T17:51:13.031Z</time></trkpt><trkpt lat="41.788070600000005" lon="12.6114504"><ele>149.0</ele><time>2026-04-14T17:51:14.055Z</time></trkpt><trkpt lat="41.7880681" lon="12.6115529"><ele>149.16666666666666</ele><time>2026-04-14T17:51:15.079Z</time></trkpt><trkpt lat="41.78806590000001" lon="12.611652900000003"><ele>149.33333333333331</ele><time>2026-04-14T17:51:16.102Z</time></trkpt><trkpt lat="41.7880634" lon="12.611755999999998"><ele>149.5</ele><time>2026-04-14T17:51:17.126Z</time></trkpt><trkpt lat="41.7880611" lon="12.611857599999999"><ele>149.66666666666666</ele><time>2026-04-14T17:51:18.048Z</time></trkpt><trkpt lat="41.7880587" lon="12.6119626"><ele>149.83333333333334</ele><time>2026-04-14T17:51:19.072Z</time></trkpt><trkpt lat="41.7880568" lon="12.6120708"><ele>150.0</ele><time>2026-04-14T17:51:20.095Z</time></trkpt><trkpt lat="41.7880549" lon="12.612179499999998"><ele>150.16666666666666</ele><time>2026-04-14T17:51:21.12Z</time></trkpt><trkpt lat="41.788054100000004" lon="12.6122929"><ele>150.33333333333334</ele><time>2026-04-14T17:51:22.043Z</time></trkpt><trkpt lat="41.7880523" lon="12.612405999999998"><ele>150.5</ele><time>2026-04-14T17:51:23.066Z</time></trkpt><trkpt lat="41.7880505" lon="12.612519"><ele>150.66666666666669</ele><time>2026-04-14T17:51:24.088Z</time></trkpt><trkpt lat="41.78804830000001" lon="12.6126315"><ele>150.83333333333334</ele><time>2026-04-14T17:51:25.113Z</time></trkpt><trkpt lat="41.788045700000005" lon="12.6127456"><ele>151.0</ele><time>2026-04-14T17:51:26.035Z</time></trkpt><trkpt lat="41.7880431" lon="12.6128584"><ele>151.16666666666669</ele><time>2026-04-14T17:51:27.059Z</time></trkpt><trkpt lat="41.7880401" lon="12.6129712"><ele>151.33333333333334</ele><time>2026-04-14T17:51:28.033Z</time></trkpt><trkpt lat="41.7880374" lon="12.613083099999997"><ele>151.5</ele><time>2026-04-14T17:51:29.108Z</time></trkpt><trkpt lat="41.78803419999999" lon="12.613195"><ele>151.66666666666666</ele><time>2026-04-14T17:51:30.029Z</time></trkpt><trkpt lat="41.7880306" lon="12.6133053"><ele>151.83333333333331</ele><time>2026-04-14T17:51:31.053Z</time></trkpt><trkpt lat="41.7880275" lon="12.613416400000002"><ele>152.0</ele><time>2026-04-14T17:51:32.078Z</time></trkpt><trkpt lat="41.7880245" lon="12.613524"><ele>152.0</ele><time>2026-04-14T17:51:33.1Z</time></trkpt><trkpt lat="41.7880217" lon="12.6136322"><ele>152.0</ele><time>2026-04-14T17:51:34.022Z</time></trkpt><trkpt lat="41.78801910000001" lon="12.61374"><ele>152.0</ele><time>2026-04-14T17:51:35.047Z</time></trkpt><trkpt lat="41.7880168" lon="12.613849100000001"><ele>152.0</ele><time>2026-04-14T17:51:36.02Z</time></trkpt><trkpt lat="41.7880142" lon="12.613959900000001"><ele>152.0</ele><time>2026-04-14T17:51:37.095Z</time></trkpt><trkpt lat="41.788011999999995" lon="12.614073800000002"><ele>152.0</ele><time>2026-04-14T17:51:38.119Z</time></trkpt><trkpt lat="41.7880097" lon="12.614190299999999"><ele>152.33333333333331</ele><time>2026-04-14T17:51:39.04Z</time></trkpt><trkpt lat="41.788007199999996" lon="12.614306299999997"><ele>152.66666666666666</ele><time>2026-04-14T17:51:40.064Z</time></trkpt><trkpt lat="41.7880045" lon="12.6144243"><ele>153.0</ele><time>2026-04-14T17:51:41.034Z</time></trkpt><trkpt lat="41.788001799999996" lon="12.61454"><ele>153.33333333333334</ele><time>2026-04-14T17:51:42.114Z</time></trkpt><trkpt lat="41.7879982" lon="12.614654700000003"><ele>153.66666666666669</ele><time>2026-04-14T17:51:43.021Z</time></trkpt><trkpt lat="41.7879949" lon="12.614768900000001"><ele>154.0</ele><time>2026-04-14T17:51:44.023Z</time></trkpt><trkpt lat="41.787992" lon="12.614881099999998"><ele>154.0</ele><time>2026-04-14T17:51:45.081Z</time></trkpt><trkpt lat="41.78798919999999" lon="12.614994200000002"><ele>154.0</ele><time>2026-04-14T17:51:46.016Z</time></trkpt><trkpt lat="41.7879863" lon="12.6151073"><ele>154.0</ele><time>2026-04-14T17:51:47.131Z</time></trkpt><trkpt lat="41.7879835" lon="12.615221000000002"><ele>154.0</ele><time>2026-04-14T17:51:48.05Z</time></trkpt><trkpt lat="41.7879817" lon="12.6153353"><ele>154.0</ele><time>2026-04-14T17:51:49.022Z</time></trkpt><trkpt lat="41.787979799999995" lon="12.615451199999999"><ele>154.0</ele><time>2026-04-14T17:51:50.017Z</time></trkpt><trkpt lat="41.787977100000006" lon="12.615566000000001"><ele>154.16666666666669</ele><time>2026-04-14T17:51:51.023Z</time></trkpt><trkpt lat="41.787974399999996" lon="12.6156835"><ele>154.33333333333334</ele><time>2026-04-14T17:51:52.03Z</time></trkpt><trkpt lat="41.787971500000005" lon="12.615797000000002"><ele>154.5</ele><time>2026-04-14T17:51:53.068Z</time></trkpt><trkpt lat="41.7879688" lon="12.615909199999999"><ele>154.66666666666666</ele><time>2026-04-14T17:51:54.092Z</time></trkpt><trkpt lat="41.7879662" lon="12.6160221"><ele>154.83333333333331</ele><time>2026-04-14T17:51:55.116Z</time></trkpt><trkpt lat="41.7879632" lon="12.616135100000001"><ele>155.0</ele><time>2026-04-14T17:51:56.034Z</time></trkpt><trkpt lat="41.787961200000005" lon="12.616245700000002"><ele>155.0</ele><time>2026-04-14T17:51:57.063Z</time></trkpt><trkpt lat="41.787958499999995" lon="12.6163556"><ele>155.0</ele><time>2026-04-14T17:51:58.085Z</time></trkpt><trkpt lat="41.787956199999996" lon="12.6164626"><ele>155.0</ele><time>2026-04-14T17:51:59.109Z</time></trkpt><trkpt lat="41.7879536" lon="12.616565299999998"><ele>155.0</ele><time>2026-04-14T17:52:00.031Z</time></trkpt><trkpt lat="41.787950699999996" lon="12.6166709"><ele>155.0</ele><time>2026-04-14T17:52:01.056Z</time></trkpt><trkpt lat="41.78794590000001" lon="12.616871700000003"><ele>155.0</ele><time>2026-04-14T17:52:03.102Z</time></trkpt><trkpt lat="41.78794419999999" lon="12.616967700000004"><ele>155.0</ele><time>2026-04-14T17:52:04.024Z</time></trkpt><trkpt lat="41.7879426" lon="12.617057599999999"><ele>155.0</ele><time>2026-04-14T17:52:05.048Z</time></trkpt><trkpt lat="41.7879254" lon="12.617203199999997"><ele>155.0</ele><time>2026-04-14T17:52:07.096Z</time></trkpt><trkpt lat="41.78788254263468" lon="12.617277209230508"><ele>155.0</ele><time>2026-04-14T17:52:09.025Z</time></trkpt><trkpt lat="41.787796799999995" lon="12.6172774"><ele>155.0</ele><time>2026-04-14T17:52:10.067Z</time></trkpt><trkpt lat="41.78768661481905" lon="12.617218228886454"><ele>155.66666666666666</ele><time>2026-04-14T17:52:12.114Z</time></trkpt><trkpt lat="41.78761723901998" lon="12.617189177770323"><ele>156.33333333333331</ele><time>2026-04-14T17:52:13.053Z</time></trkpt><trkpt lat="41.7875401510863" lon="12.617160256070665"><ele>157.0</ele><time>2026-04-14T17:52:14.06Z</time></trkpt><trkpt lat="41.787458651440346" lon="12.617131663151586"><ele>157.66666666666666</ele><time>2026-04-14T17:52:15.084Z</time></trkpt><trkpt lat="41.787370948863945" lon="12.61710089402772"><ele>158.33333333333334</ele><time>2026-04-14T17:52:16.107Z</time></trkpt><trkpt lat="41.78728016238916" lon="12.617069042965435"><ele>159.0</ele><time>2026-04-14T17:52:17.03Z</time></trkpt><trkpt lat="41.78718652936885" lon="12.617036193234851"><ele>159.0</ele><time>2026-04-14T17:52:18.053Z</time></trkpt><trkpt lat="41.78709312348222" lon="12.617003423190857"><ele>159.0</ele><time>2026-04-14T17:52:19.079Z</time></trkpt><trkpt lat="41.78699865099476" lon="12.616970848790979"><ele>159.0</ele><time>2026-04-14T17:52:20.1Z</time></trkpt><trkpt lat="41.78690628131505" lon="12.616939464023782"><ele>159.0</ele><time>2026-04-14T17:52:21.024Z</time></trkpt><trkpt lat="41.78681197953897" lon="12.616910768848934"><ele>159.0</ele><time>2026-04-14T17:52:22.048Z</time></trkpt><trkpt lat="41.7867252838687" lon="12.616885151376577"><ele>158.0</ele><time>2026-04-14T17:52:23.074Z</time></trkpt><trkpt lat="41.786632369369535" lon="12.616858040091463"><ele>157.0</ele><time>2026-04-14T17:52:24.095Z</time></trkpt><trkpt lat="41.78653999636058" lon="12.616831086805817"><ele>156.0</ele><time>2026-04-14T17:52:25.122Z</time></trkpt><trkpt lat="41.786449793942744" lon="12.616806310582"><ele>155.0</ele><time>2026-04-14T17:52:26.04Z</time></trkpt><trkpt lat="41.7863614376039" lon="12.616782471742098"><ele>154.0</ele><time>2026-04-14T17:52:27.015Z</time></trkpt><trkpt lat="41.78626962104795" lon="12.61675807004516"><ele>154.0</ele><time>2026-04-14T17:52:28.088Z</time></trkpt><trkpt lat="41.78617888461218" lon="12.616733160864987"><ele>154.0</ele><time>2026-04-14T17:52:29.112Z</time></trkpt><trkpt lat="41.786089458853986" lon="12.616705099699537"><ele>154.0</ele><time>2026-04-14T17:52:30.024Z</time></trkpt><trkpt lat="41.78600135259651" lon="12.616674299528823"><ele>154.0</ele><time>2026-04-14T17:52:31.058Z</time></trkpt><trkpt lat="41.78591379690533" lon="12.616640208736333"><ele>154.0</ele><time>2026-04-14T17:52:32.028Z</time></trkpt><trkpt lat="41.785830234343244" lon="12.616607384083956"><ele>154.5</ele><time>2026-04-14T17:52:33.106Z</time></trkpt><trkpt lat="41.785750011214645" lon="12.616575871211575"><ele>155.0</ele><time>2026-04-14T17:52:34.015Z</time></trkpt><trkpt lat="41.78567160852886" lon="12.61655081001541"><ele>155.5</ele><time>2026-04-14T17:52:35.053Z</time></trkpt><trkpt lat="41.785605321122965" lon="12.616530497660706"><ele>156.0</ele><time>2026-04-14T17:52:36.023Z</time></trkpt><trkpt lat="41.78550825698213" lon="12.616504917526875"><ele>156.5</ele><time>2026-04-14T17:52:38.027Z</time></trkpt><trkpt lat="41.785401500000006" lon="12.6164988"><ele>157.0</ele><time>2026-04-14T17:52:40.031Z</time></trkpt><trkpt lat="41.785300400000004" lon="12.6165197"><ele>157.0</ele><time>2026-04-14T17:52:42.017Z</time></trkpt><trkpt lat="41.785211600000004" lon="12.6166082"><ele>157.0</ele><time>2026-04-14T17:52:44.022Z</time></trkpt><trkpt lat="41.78509819999999" lon="12.6166742"><ele>157.0</ele><time>2026-04-14T17:52:46.024Z</time></trkpt><trkpt lat="41.785023678682144" lon="12.616682163212456"><ele>157.0</ele><time>2026-04-14T17:52:47.024Z</time></trkpt><trkpt lat="41.784949057848685" lon="12.616709901093648"><ele>157.0</ele><time>2026-04-14T17:52:48.014Z</time></trkpt><trkpt lat="41.78486645098191" lon="12.616740607525166"><ele>157.2</ele><time>2026-04-14T17:52:49.081Z</time></trkpt><trkpt lat="41.784780386768645" lon="12.616772599112835"><ele>157.39999999999998</ele><time>2026-04-14T17:52:50.019Z</time></trkpt><trkpt lat="41.7846957" lon="12.6168347"><ele>157.60000000000002</ele><time>2026-04-14T17:52:51.027Z</time></trkpt><trkpt lat="41.784602799999995" lon="12.6168678"><ele>157.8</ele><time>2026-04-14T17:52:52.028Z</time></trkpt><trkpt lat="41.78451140000001" lon="12.6169004"><ele>158.0</ele><time>2026-04-14T17:52:53.078Z</time></trkpt><trkpt lat="41.7844179" lon="12.616935"><ele>158.0</ele><time>2026-04-14T17:52:54.069Z</time></trkpt><trkpt lat="41.78432345410639" lon="12.616940990361345"><ele>158.0</ele><time>2026-04-14T17:52:55.123Z</time></trkpt><trkpt lat="41.78423429362869" lon="12.616971205856299"><ele>158.0</ele><time>2026-04-14T17:52:56.044Z</time></trkpt><trkpt lat="41.784143015306064" lon="12.616998505567496"><ele>158.0</ele><time>2026-04-14T17:52:57.07Z</time></trkpt><trkpt lat="41.784055900000006" lon="12.6170435"><ele>158.0</ele><time>2026-04-14T17:52:58.073Z</time></trkpt><trkpt lat="41.78396370000001" lon="12.617055"><ele>158.0</ele><time>2026-04-14T17:52:59.118Z</time></trkpt><trkpt lat="41.783869" lon="12.6170584"><ele>158.0</ele><time>2026-04-14T17:53:00.038Z</time></trkpt><trkpt lat="41.7837729" lon="12.6170507"><ele>158.0</ele><time>2026-04-14T17:53:01.027Z</time></trkpt><trkpt lat="41.78367839999999" lon="12.617029500000001"><ele>158.0</ele><time>2026-04-14T17:53:02.074Z</time></trkpt><trkpt lat="41.783587100000005" lon="12.616999999999999"><ele>158.0</ele><time>2026-04-14T17:53:03.11Z</time></trkpt><trkpt lat="41.783496799999995" lon="12.616958200000001"><ele>157.66666666666666</ele><time>2026-04-14T17:53:04.034Z</time></trkpt><trkpt lat="41.783411400000006" lon="12.6169125"><ele>157.33333333333331</ele><time>2026-04-14T17:53:05.057Z</time></trkpt><trkpt lat="41.783327400000005" lon="12.6168663"><ele>157.0</ele><time>2026-04-14T17:53:06.083Z</time></trkpt><trkpt lat="41.7832471" lon="12.616819300000001"><ele>156.66666666666666</ele><time>2026-04-14T17:53:07.105Z</time></trkpt><trkpt lat="41.78317130000001" lon="12.6167763"><ele>156.33333333333334</ele><time>2026-04-14T17:53:08.025Z</time></trkpt><trkpt lat="41.783089015354264" lon="12.61670944754025"><ele>156.0</ele><time>2026-04-14T17:53:09.028Z</time></trkpt><trkpt lat="41.7829976" lon="12.616687400000002"><ele>156.0</ele><time>2026-04-14T17:53:10.074Z</time></trkpt><trkpt lat="41.7829119" lon="12.616644799999998"><ele>156.0</ele><time>2026-04-14T17:53:11.019Z</time></trkpt><trkpt lat="41.78282219999999" lon="12.616598999999999"><ele>156.0</ele><time>2026-04-14T17:53:12.019Z</time></trkpt><trkpt lat="41.782729" lon="12.616553"><ele>156.0</ele><time>2026-04-14T17:53:13.045Z</time></trkpt><trkpt lat="41.7826386" lon="12.616509099999998"><ele>156.0</ele><time>2026-04-14T17:53:14.068Z</time></trkpt><trkpt lat="41.78254437427282" lon="12.616446200677048"><ele>156.0</ele><time>2026-04-14T17:53:15.025Z</time></trkpt><trkpt lat="41.7824376" lon="12.616421800000001"><ele>156.0</ele><time>2026-04-14T17:53:16.116Z</time></trkpt><trkpt lat="41.782335200000006" lon="12.6163754"><ele>156.0</ele><time>2026-04-14T17:53:17.037Z</time></trkpt><trkpt lat="41.782232199999996" lon="12.616328999999999"><ele>156.0</ele><time>2026-04-14T17:53:18.061Z</time></trkpt><trkpt lat="41.78213666944996" lon="12.616264038069644"><ele>156.0</ele><time>2026-04-14T17:53:19.086Z</time></trkpt><trkpt lat="41.7820358612337" lon="12.616218355589096"><ele>156.0</ele><time>2026-04-14T17:53:20.109Z</time></trkpt><trkpt lat="41.78193234741597" lon="12.616173947422714"><ele>156.0</ele><time>2026-04-14T17:53:21.021Z</time></trkpt><trkpt lat="41.78182471486762" lon="12.61614836319884"><ele>156.0</ele><time>2026-04-14T17:53:22.056Z</time></trkpt><trkpt lat="41.78171642560086" lon="12.616135478178725"><ele>156.0</ele><time>2026-04-14T17:53:23.079Z</time></trkpt><trkpt lat="41.78161162710309" lon="12.616127997320943"><ele>156.0</ele><time>2026-04-14T17:53:24.102Z</time></trkpt><trkpt lat="41.781501367956885" lon="12.616122589497788"><ele>156.2</ele><time>2026-04-14T17:53:25.127Z</time></trkpt><trkpt lat="41.7813937" lon="12.616135400000001"><ele>156.39999999999998</ele><time>2026-04-14T17:53:26.049Z</time></trkpt><trkpt lat="41.781285" lon="12.6161335"><ele>156.6</ele><time>2026-04-14T17:53:27.074Z</time></trkpt><trkpt lat="41.781178399999995" lon="12.616135999999997"><ele>156.79999999999998</ele><time>2026-04-14T17:53:28.096Z</time></trkpt><trkpt lat="41.78107419999999" lon="12.616141899999999"><ele>157.0</ele><time>2026-04-14T17:53:29.122Z</time></trkpt><trkpt lat="41.78096529999999" lon="12.6161519"><ele>157.0</ele><time>2026-04-14T17:53:30.055Z</time></trkpt><trkpt lat="41.78085420000001" lon="12.616166500000002"><ele>157.0</ele><time>2026-04-14T17:53:31.067Z</time></trkpt><trkpt lat="41.7807433" lon="12.616182900000002"><ele>157.0</ele><time>2026-04-14T17:53:32.09Z</time></trkpt><trkpt lat="41.7806348" lon="12.6161955"><ele>157.0</ele><time>2026-04-14T17:53:33.115Z</time></trkpt><trkpt lat="41.7805271" lon="12.616209499999998"><ele>157.0</ele><time>2026-04-14T17:53:34.036Z</time></trkpt><trkpt lat="41.780420400000004" lon="12.6162314"><ele>157.0</ele><time>2026-04-14T17:53:35.061Z</time></trkpt><trkpt lat="41.78031479999999" lon="12.616257599999997"><ele>157.0</ele><time>2026-04-14T17:53:36.084Z</time></trkpt><trkpt lat="41.780214199999996" lon="12.6162853"><ele>157.0</ele><time>2026-04-14T17:53:37.108Z</time></trkpt><trkpt lat="41.780111" lon="12.6163182"><ele>157.0</ele><time>2026-04-14T17:53:38.031Z</time></trkpt><trkpt lat="41.7800141" lon="12.616351000000002"><ele>157.0</ele><time>2026-04-14T17:53:39.054Z</time></trkpt><trkpt lat="41.7799199" lon="12.6163827"><ele>156.66666666666669</ele><time>2026-04-14T17:53:40.038Z</time></trkpt><trkpt lat="41.779830800000006" lon="12.6164115"><ele>156.33333333333334</ele><time>2026-04-14T17:53:41.101Z</time></trkpt><trkpt lat="41.77974729999999" lon="12.6164339"><ele>156.0</ele><time>2026-04-14T17:53:42.023Z</time></trkpt><trkpt lat="41.77966970000001" lon="12.616433300000002"><ele>155.66666666666666</ele><time>2026-04-14T17:53:43.019Z</time></trkpt><trkpt lat="41.7795989" lon="12.6164012"><ele>155.33333333333331</ele><time>2026-04-14T17:53:44.071Z</time></trkpt><trkpt lat="41.779539400000004" lon="12.6163436"><ele>155.0</ele><time>2026-04-14T17:53:45.094Z</time></trkpt><trkpt lat="41.77949610000001" lon="12.6162655"><ele>155.0</ele><time>2026-04-14T17:53:46.12Z</time></trkpt><trkpt lat="41.7794629" lon="12.616176399999999"><ele>155.0</ele><time>2026-04-14T17:53:47.044Z</time></trkpt><trkpt lat="41.77943140000001" lon="12.6160838"><ele>155.0</ele><time>2026-04-14T17:53:48.065Z</time></trkpt><trkpt lat="41.779400800000005" lon="12.615995400000001"><ele>155.0</ele><time>2026-04-14T17:53:49.089Z</time></trkpt><trkpt lat="41.779367900000004" lon="12.615913899999997"><ele>155.0</ele><time>2026-04-14T17:53:50.115Z</time></trkpt><trkpt lat="41.77929550000001" lon="12.615793199999999"><ele>155.0</ele><time>2026-04-14T17:53:52.021Z</time></trkpt><trkpt lat="41.779188999999995" lon="12.6157734"><ele>154.66666666666666</ele><time>2026-04-14T17:53:54.106Z</time></trkpt><trkpt lat="41.7791312" lon="12.615811"><ele>154.33333333333331</ele><time>2026-04-14T17:53:55.029Z</time></trkpt><trkpt lat="41.779072899999996" lon="12.615854999999998"><ele>154.0</ele><time>2026-04-14T17:53:56.053Z</time></trkpt><trkpt lat="41.779004600000015" lon="12.615912700000003"><ele>153.66666666666666</ele><time>2026-04-14T17:53:57.016Z</time></trkpt><trkpt lat="41.7789329" lon="12.6159704"><ele>153.33333333333334</ele><time>2026-04-14T17:53:58.099Z</time></trkpt><trkpt lat="41.778859" lon="12.616030799999999"><ele>153.0</ele><time>2026-04-14T17:53:59.126Z</time></trkpt><trkpt lat="41.778782199999995" lon="12.616092800000002"><ele>153.0</ele><time>2026-04-14T17:54:00.039Z</time></trkpt><trkpt lat="41.778709799999994" lon="12.6161494"><ele>153.0</ele><time>2026-04-14T17:54:01.069Z</time></trkpt><trkpt lat="41.7786444" lon="12.6161998"><ele>153.0</ele><time>2026-04-14T17:54:02.093Z</time></trkpt><trkpt lat="41.7785852" lon="12.616242700000003"><ele>153.0</ele><time>2026-04-14T17:54:03.117Z</time></trkpt><trkpt lat="41.778508384630975" lon="12.616322244940253"><ele>153.0</ele><time>2026-04-14T17:54:05.063Z</time></trkpt><trkpt lat="41.77841604832585" lon="12.616162257615544"><ele>153.0</ele><time>2026-04-14T17:54:07.019Z</time></trkpt><trkpt lat="41.77837220989822" lon="12.616027444468774"><ele>153.0</ele><time>2026-04-14T17:54:09.057Z</time></trkpt><trkpt lat="41.778337576882144" lon="12.615894300036096"><ele>153.0</ele><time>2026-04-14T17:54:11.104Z</time></trkpt><trkpt lat="41.77830902554371" lon="12.615818684607262"><ele>153.0</ele><time>2026-04-14T17:54:13.051Z</time></trkpt><trkpt lat="41.778196200000004" lon="12.615866100000002"><ele>153.0</ele><time>2026-04-14T17:54:14.073Z</time></trkpt><trkpt lat="41.7781267" lon="12.615972199999998"><ele>153.0</ele><time>2026-04-14T17:54:16.122Z</time></trkpt><trkpt lat="41.778060800000006" lon="12.6161159"><ele>153.0</ele><time>2026-04-14T17:54:18.067Z</time></trkpt><trkpt lat="41.778026600000004" lon="12.616197399999999"><ele>153.0</ele><time>2026-04-14T17:54:19.091Z</time></trkpt><trkpt lat="41.77798800000001" lon="12.6162841"><ele>153.0</ele><time>2026-04-14T17:54:20.116Z</time></trkpt><trkpt lat="41.7779501" lon="12.6163675"><ele>153.0</ele><time>2026-04-14T17:54:21.037Z</time></trkpt><trkpt lat="41.77791210000001" lon="12.61645"><ele>153.0</ele><time>2026-04-14T17:54:22.022Z</time></trkpt><trkpt lat="41.7778744" lon="12.616527"><ele>153.57142857142856</ele><time>2026-04-14T17:54:23.085Z</time></trkpt><trkpt lat="41.77783349999999" lon="12.6165994"><ele>154.14285714285714</ele><time>2026-04-14T17:54:24.109Z</time></trkpt><trkpt lat="41.7777827" lon="12.616655700000003"><ele>154.71428571428572</ele><time>2026-04-14T17:54:25.132Z</time></trkpt><trkpt lat="41.7777249" lon="12.6166966"><ele>155.28571428571428</ele><time>2026-04-14T17:54:26.055Z</time></trkpt><trkpt lat="41.777660299999994" lon="12.6167253"><ele>155.85714285714286</ele><time>2026-04-14T17:54:27.017Z</time></trkpt><trkpt lat="41.777589000000006" lon="12.6167311"><ele>156.42857142857142</ele><time>2026-04-14T17:54:28.103Z</time></trkpt><trkpt lat="41.777520599999995" lon="12.6167446"><ele>157.0</ele><time>2026-04-14T17:54:29.021Z</time></trkpt><trkpt lat="41.7774471" lon="12.6167554"><ele>157.0</ele><time>2026-04-14T17:54:30.05Z</time></trkpt><trkpt lat="41.777371200000005" lon="12.6167668"><ele>157.0</ele><time>2026-04-14T17:54:31.025Z</time></trkpt><trkpt lat="41.777294" lon="12.6167776"><ele>157.0</ele><time>2026-04-14T17:54:32.098Z</time></trkpt><trkpt lat="41.777211199999996" lon="12.616788699999999"><ele>157.0</ele><time>2026-04-14T17:54:33.029Z</time></trkpt><trkpt lat="41.7771296" lon="12.616796600000002"><ele>157.0</ele><time>2026-04-14T17:54:34.043Z</time></trkpt><trkpt lat="41.777045" lon="12.616803599999999"><ele>157.0</ele><time>2026-04-14T17:54:35.017Z</time></trkpt><trkpt lat="41.7769614" lon="12.6168066"><ele>157.0</ele><time>2026-04-14T17:54:36.089Z</time></trkpt><trkpt lat="41.776880299999995" lon="12.616813100000002"><ele>157.0</ele><time>2026-04-14T17:54:37.025Z</time></trkpt><trkpt lat="41.7767995" lon="12.616820600000002"><ele>157.0</ele><time>2026-04-14T17:54:38.02Z</time></trkpt><trkpt lat="41.7767146" lon="12.6168303"><ele>157.0</ele><time>2026-04-14T17:54:39.025Z</time></trkpt><trkpt lat="41.776624999999996" lon="12.6168366"><ele>157.0</ele><time>2026-04-14T17:54:40.029Z</time></trkpt><trkpt lat="41.77655459999999" lon="12.6168449"><ele>157.0</ele><time>2026-04-14T17:54:41.03Z</time></trkpt><trkpt lat="41.7764734" lon="12.616848499999998"><ele>157.16666666666669</ele><time>2026-04-14T17:54:42.03Z</time></trkpt><trkpt lat="41.7763929" lon="12.616855999999999"><ele>157.33333333333334</ele><time>2026-04-14T17:54:43.018Z</time></trkpt><trkpt lat="41.776313200000004" lon="12.616862499999998"><ele>157.5</ele><time>2026-04-14T17:54:44.077Z</time></trkpt><trkpt lat="41.776232300000004" lon="12.616869999999999"><ele>157.66666666666666</ele><time>2026-04-14T17:54:45.028Z</time></trkpt><trkpt lat="41.77614700000001" lon="12.6168787"><ele>157.83333333333331</ele><time>2026-04-14T17:54:46.125Z</time></trkpt><trkpt lat="41.7760644" lon="12.616889"><ele>158.0</ele><time>2026-04-14T17:54:47.033Z</time></trkpt><trkpt lat="41.77598759999999" lon="12.6169004"><ele>158.0</ele><time>2026-04-14T17:54:48.072Z</time></trkpt><trkpt lat="41.7759011" lon="12.616908999999998"><ele>158.0</ele><time>2026-04-14T17:54:49.035Z</time></trkpt><trkpt lat="41.7758294" lon="12.6169156"><ele>158.0</ele><time>2026-04-14T17:54:50.12Z</time></trkpt><trkpt lat="41.77576439999999" lon="12.6169237"><ele>158.0</ele><time>2026-04-14T17:54:51.042Z</time></trkpt><trkpt lat="41.77564709999999" lon="12.6169342"><ele>158.0</ele><time>2026-04-14T17:54:53.041Z</time></trkpt><trkpt lat="41.775550800000005" lon="12.616945999999999"><ele>158.0</ele><time>2026-04-14T17:54:55.035Z</time></trkpt><trkpt lat="41.77548360000001" lon="12.616959699999999"><ele>158.0</ele><time>2026-04-14T17:54:57.066Z</time></trkpt><trkpt lat="41.77542365855038" lon="12.616931938951652"><ele>158.0</ele><time>2026-04-14T17:55:04.048Z</time></trkpt><trkpt lat="41.775471492560975" lon="12.616828842146234"><ele>158.0</ele><time>2026-04-14T17:55:05.071Z</time></trkpt><trkpt lat="41.77546757561404" lon="12.61674270845217"><ele>158.0</ele><time>2026-04-14T17:55:07.119Z</time></trkpt><trkpt lat="41.775463255910886" lon="12.616647718167643"><ele>158.0</ele><time>2026-04-14T17:55:09.064Z</time></trkpt><trkpt lat="41.77545946770361" lon="12.616552871712003"><ele>158.0</ele><time>2026-04-14T17:55:11.113Z</time></trkpt></trkseg></trk></gpx>